Time;durP1;ratioP1;P1;durP2;ratioP2;P2;SDS_P1;SDS_P2;PMS_P1;PMS_P2;Temp;Humidity;BMP_temperature;BMP_pressure;BME280_temperature;BME280_humidity;BME280_pressure;Samples;Min_cycle;Max_cycle;Signal;HPM_P1;HPM_P2
2022/12/23 00:02:07;;;;;;;0.00;0.00;;;;;;;7.34;100.00;98986.59;5070780;28;20182;-75
2022/12/23 00:04:32;;;;;;;1.40;1.40;;;;;;;7.37;100.00;98987.88;5070471;28;20178;-75
2022/12/23 00:06:57;;;;;;;1.60;1.23;;;;;;;7.42;100.00;98980.34;5070639;28;20392;-75
2022/12/23 00:09:22;;;;;;;0.30;0.30;;;;;;;7.46;100.00;98973.13;5070734;28;20166;-75
2022/12/23 00:17:15;;;;;;;0.00;0.00;;;;;;;7.54;100.00;98965.28;5070596;28;20182;-75
2022/12/23 00:19:41;;;;;;;0.90;0.87;;;;;;;7.54;100.00;98968.00;5070656;28;20163;-75
2022/12/23 00:22:06;;;;;;;0.37;0.37;;;;;;;7.57;100.00;98965.41;5069384;28;20174;-75
2022/12/23 00:24:31;;;;;;;0.33;0.33;;;;;;;7.56;100.00;98965.75;5070339;28;20540;-75
2022/12/23 00:26:57;;;;;;;0.30;0.30;;;;;;;7.56;100.00;98963.03;5070456;28;20174;-75
2022/12/23 00:29:22;;;;;;;1.17;0.97;;;;;;;7.57;100.00;98961.91;5070328;28;20174;-75
2022/12/23 00:31:47;;;;;;;0.00;0.00;;;;;;;7.57;100.00;98967.34;5070346;28;20193;-75
2022/12/23 00:34:13;;;;;;;0.10;0.10;;;;;;;7.59;100.00;98976.75;5070096;28;20376;-75
2022/12/23 00:36:39;;;;;;;0.20;0.20;;;;;;;7.60;100.00;98967.47;5070626;28;20178;-75
2022/12/23 00:44:32;;;;;;;0.63;0.63;;;;;;;7.63;100.00;98966.00;5070622;28;20165;-74
2022/12/23 00:46:58;;;;;;;0.00;0.00;;;;;;;7.65;100.00;98967.28;5070635;28;20550;-75
2022/12/23 00:49:41;;;;;;;0.40;0.40;;;;;;;7.65;100.00;98967.28;5070725;28;20182;-75
2022/12/23 00:52:10;;;;;;;0.00;0.00;;;;;;;7.67;100.00;98962.34;5069704;28;20195;-75
2022/12/23 00:54:36;;;;;;;1.03;0.83;;;;;;;7.72;100.00;98955.91;5070954;28;20202;-75
2022/12/23 00:57:02;;;;;;;0.87;0.87;;;;;;;7.77;100.00;98955.69;5071245;28;20229;-75
2022/12/23 00:59:28;;;;;;;0.93;0.83;;;;;;;7.80;100.00;98946.09;5071036;28;20603;-75
2022/12/23 01:07:22;;;;;;;0.00;0.00;;;;;;;7.85;100.00;98937.75;5070559;28;20249;-75
2022/12/23 01:09:47;;;;;;;0.43;0.43;;;;;;;7.84;100.00;98931.53;5070457;28;20671;-75
2022/12/23 01:12:13;;;;;;;0.40;0.40;;;;;;;7.85;100.00;98940.47;5070314;28;20443;-75
2022/12/23 01:14:39;;;;;;;0.43;0.43;;;;;;;7.87;100.00;98943.66;5069187;28;20587;-75
2022/12/23 01:17:06;;;;;;;0.83;0.60;;;;;;;7.90;100.00;98951.16;5070104;28;20603;-75
2022/12/23 01:19:31;;;;;;;0.30;0.30;;;;;;;7.91;100.00;98937.22;5072780;28;20200;-75
2022/12/23 01:21:57;;;;;;;0.47;0.47;;;;;;;7.95;100.00;98943.56;5074363;28;20224;-75
2022/12/23 01:24:29;;;;;;;1.27;0.90;;;;;;;8.00;100.00;98945.31;5073811;28;20253;-75
2022/12/23 01:26:54;;;;;;;0.27;0.27;;;;;;;8.05;100.00;98943.19;5072792;28;20178;-75
2022/12/23 01:29:19;;;;;;;0.10;0.10;;;;;;;8.04;100.00;98952.47;5072798;28;20171;-75
2022/12/23 01:31:45;;;;;;;0.97;0.90;;;;;;;8.06;100.00;98950.22;5072681;28;20183;-75
2022/12/23 01:34:10;;;;;;;0.70;0.70;;;;;;;8.07;100.00;98948.31;5073704;28;20169;-75
2022/12/23 01:36:35;;;;;;;0.77;0.77;;;;;;;8.09;100.00;98950.69;5073901;28;20171;-75
2022/12/23 01:39:00;;;;;;;1.23;1.17;;;;;;;8.05;100.00;98953.28;5072580;28;20278;-75
2022/12/23 01:44:49;;;;;;;1.73;1.63;;;;;;;8.05;100.00;98959.50;5074186;28;20584;-75
2022/12/23 01:47:25;;;;;;;0.93;0.93;;;;;;;8.01;100.00;98969.47;5073745;28;20170;-75
2022/12/23 01:49:59;;;;;;;1.10;0.63;;;;;;;8.03;100.00;98960.97;5073771;28;20162;-75
2022/12/23 01:52:25;;;;;;;2.60;2.20;;;;;;;8.01;100.00;98957.78;5073613;28;20194;-75
2022/12/23 01:54:51;;;;;;;1.47;1.37;;;;;;;8.05;100.00;98956.00;5073747;28;20175;-75
2022/12/23 01:57:17;;;;;;;1.30;1.20;;;;;;;8.06;100.00;98960.31;5073867;28;20174;-75
2022/12/23 02:05:15;;;;;;;1.50;1.40;;;;;;;8.10;100.00;98950.38;5073766;28;20166;-75
2022/12/23 02:10:35;;;;;;;3.73;2.30;;;;;;;8.14;100.00;98951.31;5073353;28;20197;-75
2022/12/23 02:13:24;;;;;;;1.10;1.07;;;;;;;8.13;100.00;98955.16;5073114;28;20200;-75
2022/12/23 02:16:17;;;;;;;2.03;1.93;;;;;;;8.14;100.00;98961.38;5073284;28;20177;-75
2022/12/23 02:19:08;;;;;;;1.50;1.37;;;;;;;8.15;100.00;98966.50;5073218;28;20177;-75
2022/12/23 02:21:33;;;;;;;3.10;1.67;;;;;;;8.16;100.00;98970.00;5073174;28;20170;-75
2022/12/23 02:24:11;;;;;;;0.67;0.67;;;;;;;8.19;100.00;98963.91;5073132;28;20185;-75
2022/12/23 02:27:00;;;;;;;1.57;1.47;;;;;;;8.18;100.00;98971.25;5073059;28;20166;-75
2022/12/23 02:29:58;;;;;;;1.87;1.77;;;;;;;8.17;100.00;98975.13;5072676;28;20615;-75
2022/12/23 02:32:51;;;;;;;1.40;1.30;;;;;;;8.20;100.00;98973.66;5072818;28;20226;-75
2022/12/23 02:35:35;;;;;;;3.83;1.87;;;;;;;8.20;100.00;98970.94;5072967;28;20167;-75
2022/12/23 02:38:19;;;;;;;1.60;1.50;;;;;;;8.21;100.00;98970.59;5072851;28;20178;-75
2022/12/23 02:41:08;;;;;;;7.97;2.03;;;;;;;8.25;100.00;98968.81;5071472;28;20220;-75
2022/12/23 02:43:47;;;;;;;2.47;2.23;;;;;;;8.24;100.00;98963.69;5072554;28;20272;-75
2022/12/23 02:46:35;;;;;;;1.47;1.37;;;;;;;8.26;100.00;98964.97;5072966;28;20178;-75
2022/12/23 02:49:07;;;;;;;1.13;1.13;;;;;;;8.25;100.00;98971.53;5071265;28;20224;-75
2022/12/23 02:51:39;;;;;;;1.00;1.00;;;;;;;8.25;100.00;98960.66;5072650;28;20170;-76
2022/12/23 02:54:09;;;;;;;1.23;1.13;;;;;;;8.24;100.00;98967.19;5072465;28;20238;-75
2022/12/23 02:56:38;;;;;;;2.33;2.17;;;;;;;8.24;100.00;98969.94;5072556;28;20218;-75
2022/12/23 02:59:33;;;;;;;2.07;1.97;;;;;;;8.22;100.00;98969.47;5072650;28;20266;-76
2022/12/23 03:01:59;;;;;;;3.10;1.73;;;;;;;8.21;100.00;98973.31;5070032;28;20269;-75
2022/12/23 03:04:24;;;;;;;11.80;1.33;;;;;;;8.22;100.00;98969.47;5071531;28;20284;-75
2022/12/23 03:06:53;;;;;;;1.30;1.20;;;;;;;8.22;100.00;98971.38;5072158;28;20179;-75
2022/12/23 03:09:41;;;;;;;3.40;3.10;;;;;;;8.22;100.00;98964.03;5072233;28;20171;-75
2022/12/23 03:12:56;;;;;;;2.23;2.03;;;;;;;8.23;100.00;98970.25;5072221;28;20202;-76
2022/12/23 03:15:36;;;;;;;3.80;3.37;;;;;;;8.22;100.00;98958.59;5028026;28;20194;-75
2022/12/23 03:18:09;;;;;;;6.23;2.57;;;;;;;8.25;100.00;98957.94;5072094;28;20174;-75
2022/12/23 03:20:49;;;;;;;3.37;3.07;;;;;;;8.25;100.00;98963.38;5072111;28;20166;-75
2022/12/23 03:23:32;;;;;;;3.80;3.50;;;;;;;8.26;100.00;98956.00;5071594;28;20167;-76
2022/12/23 03:26:00;;;;;;;2.17;2.00;;;;;;;8.27;100.00;98960.31;5070378;28;20175;-75
2022/12/23 03:28:39;;;;;;;0.97;0.97;;;;;;;8.30;100.00;98955.00;5072054;28;20178;-75
2022/12/23 03:31:11;;;;;;;1.13;1.13;;;;;;;8.27;100.00;98952.97;5071761;28;20239;-75
2022/12/23 03:33:41;;;;;;;2.60;2.40;;;;;;;8.28;100.00;98951.81;5071442;28;20414;-76
2022/12/23 03:36:13;;;;;;;3.87;2.80;;;;;;;8.30;100.00;98960.44;5070629;28;20628;-75
2022/12/23 03:38:42;;;;;;;0.93;0.70;;;;;;;8.30;100.00;98952.28;5071708;28;20224;-75
2022/12/23 03:41:15;;;;;;;3.00;2.77;;;;;;;8.28;100.00;98962.72;5069925;28;20186;-75
2022/12/23 03:43:46;;;;;;;3.80;3.50;;;;;;;8.34;100.00;98961.41;5071144;28;20170;-75
2022/12/23 03:46:17;;;;;;;2.97;2.73;;;;;;;8.34;100.00;98950.50;5070215;28;20170;-75
2022/12/23 03:48:50;;;;;;;2.03;1.93;;;;;;;8.38;100.00;98956.09;5071445;28;20220;-76
2022/12/23 03:51:21;;;;;;;5.83;5.33;;;;;;;8.41;100.00;98960.09;5071608;28;20163;-75
2022/12/23 03:54:04;;;;;;;3.33;3.03;;;;;;;8.42;100.00;98962.47;5070987;28;20397;-75
2022/12/23 03:56:34;;;;;;;2.10;1.97;;;;;;;8.42;100.00;98957.03;5069987;28;20189;-75
2022/12/23 03:59:13;;;;;;;3.47;3.27;;;;;;;8.43;100.00;98963.25;5071254;28;20511;-76
2022/12/23 04:02:00;;;;;;;2.13;2.03;;;;;;;8.42;100.00;98967.91;5069981;28;20174;-75
2022/12/23 04:04:42;;;;;;;2.30;2.10;;;;;;;8.40;100.00;98975.63;5070902;28;20665;-75
2022/12/23 04:07:26;;;;;;;3.17;2.97;;;;;;;8.41;100.00;98981.84;5071420;28;20510;-75
2022/12/23 04:09:53;;;;;;;3.43;3.20;;;;;;;8.42;100.00;98984.25;5070055;28;20523;-76
2022/12/23 04:12:21;;;;;;;3.60;3.30;;;;;;;8.39;100.00;98979.47;5071246;28;20205;-76
2022/12/23 04:14:48;;;;;;;1.93;1.83;;;;;;;8.40;100.00;98988.44;5071261;28;20186;-75
2022/12/23 04:17:14;;;;;;;2.97;2.73;;;;;;;8.40;100.00;98993.88;5070879;28;20182;-76
2022/12/23 04:19:40;;;;;;;3.33;3.03;;;;;;;8.40;100.00;98985.72;5070959;28;20170;-76
2022/12/23 04:22:06;;;;;;;4.83;4.43;;;;;;;8.37;100.00;98991.78;5069474;28;20178;-76
2022/12/23 04:24:31;;;;;;;4.20;3.80;;;;;;;8.36;100.00;98996.44;5069262;28;20343;-75
2022/12/23 04:26:56;;;;;;;4.60;3.47;;;;;;;8.34;100.00;98996.78;5070738;28;20174;-76
2022/12/23 04:29:21;;;;;;;3.27;3.03;;;;;;;8.35;100.00;98998.38;5071105;28;20682;-75
2022/12/23 04:31:47;;;;;;;3.10;2.80;;;;;;;8.36;100.00;98991.00;5070921;28;20186;-76
2022/12/23 04:34:12;;;;;;;5.40;3.63;;;;;;;8.36;100.00;98988.28;5069783;28;20268;-76
2022/12/23 04:36:37;;;;;;;2.27;2.17;;;;;;;8.35;100.00;98992.91;5070949;28;20183;-75
2022/12/23 04:39:03;;;;;;;1.47;1.40;;;;;;;8.35;100.00;98989.41;5070724;28;20178;-75
2022/12/23 04:41:28;;;;;;;2.63;2.43;;;;;;;8.33;100.00;98992.44;5070697;28;20175;-75
2022/12/23 04:43:54;;;;;;;1.43;1.33;;;;;;;8.34;100.00;99002.22;5070702;28;20201;-75
2022/12/23 04:46:19;;;;;;;3.07;2.80;;;;;;;8.33;100.00;98999.81;5070667;28;20178;-76
2022/12/23 04:48:44;;;;;;;1.43;1.37;;;;;;;8.35;100.00;99014.69;5070528;28;20182;-76
2022/12/23 04:51:10;;;;;;;1.40;1.00;;;;;;;8.24;100.00;99023.53;5069217;28;20188;-76
2022/12/23 04:53:36;;;;;;;21.50;1.87;;;;;;;8.21;100.00;99021.50;5071246;28;20204;-76
2022/12/23 04:56:01;;;;;;;1.60;1.50;;;;;;;8.16;100.00;99017.03;5074784;28;20177;-76
2022/12/23 04:58:26;;;;;;;1.03;0.73;;;;;;;8.16;100.00;99018.97;5074658;28;20182;-76
2022/12/23 05:01:08;;;;;;;0.63;0.63;;;;;;;8.16;100.00;99016.25;5074641;28;20582;-75
2022/12/23 05:03:34;;;;;;;0.10;0.10;;;;;;;8.17;100.00;99023.28;5074200;28;20243;-76
2022/12/23 05:05:59;;;;;;;1.07;1.07;;;;;;;8.14;100.00;99032.91;5073210;28;20630;-76
2022/12/23 05:08:25;;;;;;;0.30;0.30;;;;;;;8.11;100.00;99035.50;5072569;28;20514;-76
2022/12/23 05:10:51;;;;;;;0.37;0.37;;;;;;;8.10;100.00;99031.97;5074509;28;20561;-76
2022/12/23 05:13:16;;;;;;;0.10;0.10;;;;;;;8.10;100.00;99031.16;5074127;28;20194;-76
2022/12/23 05:15:45;;;;;;;0.27;0.27;;;;;;;8.09;100.00;99029.56;5074272;28;20175;-76
2022/12/23 05:18:11;;;;;;;0.10;0.10;;;;;;;8.04;100.00;99036.78;5074317;28;20630;-76
2022/12/23 05:20:37;;;;;;;0.00;0.00;;;;;;;8.06;100.00;99047.34;5074303;28;20682;-76
2022/12/23 05:23:02;;;;;;;1.60;1.50;;;;;;;8.03;100.00;99045.28;5072536;28;20178;-75
2022/12/23 05:25:27;;;;;;;0.00;0.00;;;;;;;7.99;100.00;99042.44;5074189;28;20170;-75
2022/12/23 05:27:52;;;;;;;0.23;0.23;;;;;;;7.97;100.00;99049.34;5074063;28;20274;-76
2022/12/23 05:30:18;;;;;;;0.10;0.10;;;;;;;7.96;100.00;99048.53;5074523;28;20542;-76
2022/12/23 05:32:43;;;;;;;0.77;0.77;;;;;;;7.93;100.00;99043.72;5073997;28;20199;-75
2022/12/23 05:35:09;;;;;;;0.30;0.17;;;;;;;7.90;100.00;99049.84;5074004;28;20547;-76
2022/12/23 05:37:34;;;;;;;0.40;0.40;;;;;;;7.89;100.00;99058.31;5073820;28;20202;-75
2022/12/23 05:40:00;;;;;;;0.10;0.10;;;;;;;7.87;100.00;99055.94;5074115;28;20202;-76
2022/12/23 05:42:25;;;;;;;0.00;0.00;;;;;;;7.83;100.00;99059.63;5073816;28;20170;-76
2022/12/23 05:44:50;;;;;;;0.93;0.87;;;;;;;7.81;100.00;99067.31;5073649;28;20202;-76
2022/12/23 05:47:16;;;;;;;0.57;0.53;;;;;;;7.79;100.00;99064.13;5073795;28;20182;-76
2022/12/23 05:49:41;;;;;;;0.00;0.00;;;;;;;7.80;100.00;99073.88;5073784;28;20645;-76
2022/12/23 05:52:06;;;;;;;0.00;0.00;;;;;;;7.83;100.00;99078.66;5073681;28;20198;-76
2022/12/23 05:54:32;;;;;;;0.63;0.63;;;;;;;7.82;100.00;99077.88;5073435;28;20175;-76
2022/12/23 05:56:57;;;;;;;0.00;0.00;;;;;;;7.84;100.00;99091.94;5073645;28;20166;-76
2022/12/23 05:59:22;;;;;;;0.10;0.10;;;;;;;7.83;100.00;99084.09;5073843;28;20181;-76
2022/12/23 06:01:47;;;;;;;0.00;0.00;;;;;;;7.84;100.00;99093.84;5072295;28;20232;-76
2022/12/23 06:04:13;;;;;;;0.00;0.00;;;;;;;7.85;100.00;99087.28;5072945;28;20182;-76
2022/12/23 06:06:38;;;;;;;0.83;0.83;;;;;;;7.80;100.00;99098.34;5073390;28;20231;-76
2022/12/23 06:09:03;;;;;;;0.07;0.07;;;;;;;7.77;100.00;99094.34;5073415;28;20175;-76
2022/12/23 06:11:29;;;;;;;0.00;0.00;;;;;;;7.75;100.00;99097.41;5072059;28;20189;-76
2022/12/23 06:13:54;;;;;;;0.00;0.00;;;;;;;7.71;100.00;99092.94;5073275;28;20210;-76
2022/12/23 06:16:19;;;;;;;0.00;0.00;;;;;;;7.67;100.00;99097.44;5073186;28;20688;-76
2022/12/23 06:18:45;;;;;;;0.10;0.07;;;;;;;7.60;100.00;99099.84;5073668;28;20209;-76
2022/12/23 06:21:10;;;;;;;0.70;0.63;;;;;;;7.59;100.00;99103.69;5073231;28;20566;-76
2022/12/23 06:23:35;;;;;;;0.00;0.00;;;;;;;7.58;100.00;99102.09;5072835;28;20212;-76
2022/12/23 06:26:01;;;;;;;1.23;1.23;;;;;;;7.55;100.00;99113.63;5073081;28;20217;-76
2022/12/23 06:28:28;;;;;;;0.47;0.47;;;;;;;7.51;100.00;99118.09;5073197;28;20524;-76
2022/12/23 06:30:54;;;;;;;0.53;0.53;;;;;;;7.47;100.00;99118.75;5072957;28;20224;-76
2022/12/23 06:33:20;;;;;;;0.37;0.37;;;;;;;7.47;100.00;99117.94;5072493;28;20260;-76
2022/12/23 06:35:45;;;;;;;0.30;0.30;;;;;;;7.43;100.00;99125.16;5072762;28;20175;-76
2022/12/23 06:38:11;;;;;;;0.63;0.63;;;;;;;7.45;100.00;99134.56;5072736;28;20185;-75
2022/12/23 06:40:36;;;;;;;0.00;0.00;;;;;;;7.48;100.00;99130.41;5073338;28;20220;-76
2022/12/23 06:43:01;;;;;;;0.00;0.00;;;;;;;7.49;100.00;99139.34;5075519;28;20658;-76
2022/12/23 06:45:27;;;;;;;0.10;0.10;;;;;;;7.46;100.00;99144.31;5078792;28;20674;-76
2022/12/23 06:47:52;;;;;;;0.00;0.00;;;;;;;7.40;100.00;99151.06;5072844;28;20206;-76
2022/12/23 06:50:17;;;;;;;0.67;0.67;;;;;;;7.39;100.00;99154.09;5072685;28;20175;-76
2022/12/23 06:52:44;;;;;;;0.73;0.73;;;;;;;7.34;100.00;99154.25;5071292;28;20205;-76
2022/12/23 06:55:09;;;;;;;0.93;0.93;;;;;;;7.33;100.00;99166.22;5073198;28;20178;-76
2022/12/23 06:57:34;;;;;;;1.30;0.97;;;;;;;7.32;100.00;99162.72;5073032;28;20547;-76
2022/12/23 07:00:00;;;;;;;0.90;0.90;;;;;;;7.26;100.00;99164.00;5072488;28;20174;-76
2022/12/23 07:02:25;;;;;;;0.00;0.00;;;;;;;7.23;100.00;99170.06;5072366;28;20178;-76
2022/12/23 07:04:50;;;;;;;2.90;1.43;;;;;;;7.24;100.00;99176.31;5072096;28;20186;-76
2022/12/23 07:07:16;;;;;;;0.20;0.20;;;;;;;7.20;100.00;99188.94;5072266;28;20397;-76
2022/12/23 07:09:41;;;;;;;0.53;0.53;;;;;;;7.19;100.00;99182.69;5072400;28;20198;-76
2022/12/23 07:12:06;;;;;;;0.67;0.67;;;;;;;7.15;100.00;99181.75;5072135;28;20198;-76
2022/12/23 07:14:32;;;;;;;0.73;0.73;;;;;;;7.14;100.00;99189.09;5071889;28;20205;-76
2022/12/23 07:16:57;;;;;;;0.60;0.60;;;;;;;7.13;100.00;99194.84;5071440;28;20182;-76
2022/12/23 07:19:22;;;;;;;1.17;0.93;;;;;;;7.10;100.00;99199.00;5072125;28;20638;-76
2022/12/23 07:21:48;;;;;;;4.27;1.70;;;;;;;7.07;100.00;99196.09;5071974;28;20174;-76
2022/12/23 07:24:13;;;;;;;1.17;1.17;;;;;;;7.06;100.00;99197.22;5071509;28;20666;-76
2022/12/23 07:26:38;;;;;;;1.47;1.40;;;;;;;6.98;100.00;99204.25;5071374;28;20201;-75
2022/12/23 07:29:04;;;;;;;0.50;0.50;;;;;;;6.94;100.00;99206.00;5071713;28;20178;-76
2022/12/23 07:31:29;;;;;;;1.50;1.40;;;;;;;6.92;100.00;99213.66;5071952;28;20179;-76
2022/12/23 07:33:54;;;;;;;0.67;0.67;;;;;;;6.93;100.00;99220.69;5071449;28;20202;-76
2022/12/23 07:36:20;;;;;;;2.33;1.80;;;;;;;6.90;100.00;99220.53;5072028;28;20205;-75
2022/12/23 07:38:49;;;;;;;1.73;1.37;;;;;;;6.89;100.00;99216.22;5071598;28;20545;-74
2022/12/23 07:41:14;;;;;;;0.00;0.00;;;;;;;6.93;100.00;99223.41;5071285;28;20183;-74
2022/12/23 07:43:39;;;;;;;0.00;0.00;;;;;;;6.92;100.00;99226.44;5070825;28;20201;-75
2022/12/23 07:46:06;;;;;;;0.60;0.60;;;;;;;6.91;100.00;99227.56;5071057;28;20571;-74
2022/12/23 07:48:32;;;;;;;0.00;0.00;;;;;;;6.86;100.00;99228.50;5071273;28;20634;-74
2022/12/23 07:51:01;;;;;;;0.47;0.47;;;;;;;6.83;100.00;99234.59;5069809;28;20189;-75
2022/12/23 07:53:27;;;;;;;0.30;0.30;;;;;;;6.79;100.00;99244.44;5070573;28;20230;-74
2022/12/23 07:55:53;;;;;;;1.03;1.03;;;;;;;6.78;100.00;99234.72;5071042;28;20170;-75
2022/12/23 07:58:18;;;;;;;1.03;1.03;;;;;;;6.75;100.00;99238.06;5071017;28;20320;-74
2022/12/23 08:00:43;;;;;;;0.47;0.47;;;;;;;6.76;100.00;99239.66;5070898;28;20206;-74
2022/12/23 08:03:11;;;;;;;0.70;0.70;;;;;;;6.77;100.00;99238.53;5070683;28;20213;-74
2022/12/23 08:05:37;;;;;;;0.97;0.97;;;;;;;6.76;100.00;99237.75;5070597;28;20659;-74
2022/12/23 08:08:02;;;;;;;1.30;1.30;;;;;;;6.74;100.00;99241.91;5070572;28;20206;-75
2022/12/23 08:10:28;;;;;;;0.57;0.57;;;;;;;6.74;100.00;99244.59;5070581;28;20181;-74
2022/12/23 08:12:53;;;;;;;0.00;0.00;;;;;;;6.75;100.00;99252.44;5070371;28;20209;-74
2022/12/23 08:15:19;;;;;;;1.37;1.37;;;;;;;6.72;100.00;99250.34;5070717;28;20642;-74
2022/12/23 08:17:44;;;;;;;1.27;1.17;;;;;;;6.68;100.00;99254.81;5070539;28;20174;-74
2022/12/23 08:20:10;;;;;;;0.70;0.57;;;;;;;6.69;100.00;99247.47;5070658;28;20468;-74
2022/12/23 08:22:35;;;;;;;0.63;0.63;;;;;;;6.70;100.00;99257.22;5070106;28;20232;-74
2022/12/23 08:25:00;;;;;;;0.90;0.90;;;;;;;6.69;100.00;99259.13;5070561;28;20572;-75
2022/12/23 08:27:26;;;;;;;1.40;1.30;;;;;;;6.66;100.00;99258.97;5070395;28;20186;-75
2022/12/23 08:29:51;;;;;;;1.43;1.40;;;;;;;6.68;100.00;99260.25;5070506;28;20220;-75
2022/12/23 08:32:17;;;;;;;0.30;0.30;;;;;;;6.68;100.00;99264.88;5070339;28;20662;-74
2022/12/23 08:34:42;;;;;;;0.83;0.83;;;;;;;6.70;100.00;99268.88;5070278;28;20512;-75
2022/12/23 08:37:07;;;;;;;6.33;2.00;;;;;;;6.69;100.00;99277.34;5069972;28;20273;-74
2022/12/23 08:39:33;;;;;;;1.93;1.90;;;;;;;6.73;100.00;99281.00;5070083;28;20255;-74
2022/12/23 08:41:58;;;;;;;0.40;0.40;;;;;;;6.72;100.00;99276.69;5070479;28;20185;-74
2022/12/23 08:44:26;;;;;;;3.27;2.70;;;;;;;6.71;100.00;99278.63;5069995;28;20540;-74
2022/12/23 08:46:54;;;;;;;0.20;0.20;;;;;;;6.69;100.00;99282.75;5070068;28;20178;-74
2022/12/23 08:49:20;;;;;;;2.37;2.27;;;;;;;6.71;100.00;99281.31;5070226;28;20662;-75
2022/12/23 08:51:45;;;;;;;0.30;0.30;;;;;;;6.75;100.00;99287.72;5070136;28;20297;-74
2022/12/23 08:54:11;;;;;;;0.10;0.10;;;;;;;6.79;100.00;99285.97;5069866;28;20692;-74
2022/12/23 08:56:40;;;;;;;0.37;0.37;;;;;;;6.82;100.00;99282.66;5070115;28;20254;-75
2022/12/23 08:59:05;;;;;;;0.67;0.67;;;;;;;6.82;100.00;99290.00;5070161;28;20198;-78
2022/12/23 09:01:32;;;;;;;0.00;0.00;;;;;;;6.74;100.00;99288.84;5070150;28;20236;-87
2022/12/23 09:04:02;;;;;;;1.63;1.23;;;;;;;6.82;100.00;99296.22;5068434;28;20194;-83
2022/12/23 09:06:32;;;;;;;2.60;2.43;;;;;;;6.79;100.00;99293.31;5070116;28;20167;-75
2022/12/23 09:08:57;;;;;;;0.30;0.30;;;;;;;6.74;100.00;99291.56;5070120;28;20213;-77
2022/12/23 09:11:26;;;;;;;0.97;0.97;;;;;;;6.77;100.00;99295.53;5070163;28;20638;-73
2022/12/23 09:13:53;;;;;;;1.63;1.53;;;;;;;6.77;100.00;99290.13;5069479;28;20689;-74
2022/12/23 09:16:19;;;;;;;0.37;0.37;;;;;;;6.80;100.00;99294.94;5068859;28;20247;-74
2022/12/23 09:18:44;;;;;;;0.63;0.63;;;;;;;6.84;100.00;99285.84;5069861;28;20194;-73
2022/12/23 09:21:15;;;;;;;0.87;0.87;;;;;;;6.91;100.00;99304.38;5069906;28;20206;-74
2022/12/23 09:23:40;;;;;;;0.03;0.03;;;;;;;6.94;100.00;99292.88;5069424;28;20271;-71
2022/12/23 09:26:07;;;;;;;0.77;0.77;;;;;;;7.02;100.00;99286.69;5069932;28;20178;-75
2022/12/23 09:28:32;;;;;;;0.00;0.00;;;;;;;7.06;100.00;99289.56;5069560;28;20251;-74
2022/12/23 09:31:08;;;;;;;5.33;2.03;;;;;;;6.95;100.00;99286.34;5070157;28;20610;-73
2022/12/23 09:33:34;;;;;;;2.27;2.17;;;;;;;6.84;100.00;99285.84;5068578;28;20202;-74
2022/12/23 09:36:01;;;;;;;0.60;0.60;;;;;;;6.83;100.00;99297.03;5070158;28;20232;-74
2022/12/23 09:38:26;;;;;;;2.53;2.43;;;;;;;6.82;100.00;99303.56;5070059;28;20183;-73
2022/12/23 09:40:51;;;;;;;2.27;2.13;;;;;;;6.75;100.00;99295.06;5072445;28;20179;-74
2022/12/23 09:43:26;;;;;;;2.57;2.47;;;;;;;6.75;100.00;99303.22;5073762;28;20226;-74
2022/12/23 09:46:20;;;;;;;1.73;1.70;;;;;;;6.73;100.00;99306.25;5073786;28;20181;-74
2022/12/23 09:49:11;;;;;;;1.20;1.20;;;;;;;6.74;100.00;99301.59;5073745;28;20181;-75
2022/12/23 09:51:37;;;;;;;0.40;0.40;;;;;;;6.72;100.00;99299.22;5073694;28;20177;-74
2022/12/23 09:54:18;;;;;;;1.07;1.03;;;;;;;6.73;100.00;99297.28;5073525;28;20206;-75
2022/12/23 09:57:35;;;;;;;0.20;0.20;;;;;;;6.76;100.00;99316.47;5073530;28;20232;-74
2022/12/23 10:00:11;;;;;;;0.83;0.83;;;;;;;6.84;100.00;99306.75;5068789;28;20621;-73
2022/12/23 10:02:55;;;;;;;1.07;0.97;;;;;;;6.93;100.00;99309.47;5073218;28;20537;-74
2022/12/23 10:05:45;;;;;;;0.00;0.00;;;;;;;6.97;100.00;99316.72;5073526;28;20175;-75
2022/12/23 10:08:18;;;;;;;0.00;0.00;;;;;;;7.00;100.00;99309.84;5071913;28;20187;-74
2022/12/23 10:10:52;;;;;;;0.00;0.00;;;;;;;7.08;100.00;99311.75;5073380;28;20170;-80
2022/12/23 10:13:38;;;;;;;8.80;2.53;;;;;;;7.06;100.00;99314.81;5072949;28;20899;-73
2022/12/23 10:16:12;;;;;;;0.00;0.00;;;;;;;7.07;100.00;99304.72;5072841;28;20189;-74
2022/12/23 10:18:46;;;;;;;0.00;0.00;;;;;;;7.18;100.00;99306.03;5073282;28;20170;-75
2022/12/23 10:21:23;;;;;;;2.10;2.00;;;;;;;7.17;100.00;99312.59;5073073;28;20178;-74
2022/12/23 10:23:52;;;;;;;0.33;0.33;;;;;;;7.11;100.00;99309.25;5072849;28;20174;-77
2022/12/23 10:26:59;;;;;;;2.00;1.90;;;;;;;7.09;100.00;99307.97;5073367;28;20183;-74
2022/12/23 10:29:29;;;;;;;1.13;1.13;;;;;;;7.11;100.00;99306.53;5073024;28;20182;-74
2022/12/23 10:32:03;;;;;;;1.17;1.10;;;;;;;7.09;100.00;99306.03;5072895;28;20171;-75
2022/12/23 10:34:51;;;;;;;0.00;0.00;;;;;;;7.14;100.00;99299.66;5072771;28;20217;-75
2022/12/23 10:37:25;;;;;;;0.00;0.00;;;;;;;7.10;100.00;99304.13;5073209;28;20182;-77
2022/12/23 10:40:09;;;;;;;0.00;0.00;;;;;;;7.15;100.00;99309.41;5072840;28;20540;-74
2022/12/23 10:43:05;;;;;;;0.00;0.00;;;;;;;7.26;100.00;99304.47;5071261;28;20190;-75
2022/12/23 10:45:42;;;;;;;0.00;0.00;;;;;;;7.35;100.00;99295.19;5040999;28;20205;-74
2022/12/23 10:48:24;;;;;;;0.00;0.00;;;;;;;7.46;100.00;99299.22;5072656;28;20194;-75
2022/12/23 10:50:56;;;;;;;2.10;2.00;;;;;;;7.44;100.00;99290.59;5071879;28;20178;-74
2022/12/23 10:53:42;;;;;;;0.00;0.00;;;;;;;7.40;100.00;99292.34;5071959;28;20209;-75
2022/12/23 10:56:08;;;;;;;0.00;0.00;;;;;;;7.31;100.00;99294.25;5072876;28;20196;-75
2022/12/23 10:58:39;;;;;;;0.00;0.00;;;;;;;7.38;100.00;99288.34;5070970;28;20709;-75
2022/12/23 11:01:07;;;;;;;0.00;0.00;;;;;;;7.32;100.00;99287.69;5072315;28;20689;-77
2022/12/23 11:03:39;;;;;;;0.00;0.00;;;;;;;7.18;100.00;99294.38;5071580;28;20190;-76
2022/12/23 11:06:06;;;;;;;0.00;0.00;;;;;;;7.34;100.00;99288.16;5072165;28;20202;-75
2022/12/23 11:08:35;;;;;;;0.00;0.00;;;;;;;7.48;100.00;99301.59;5072148;28;20517;-76
2022/12/23 11:11:01;;;;;;;0.00;0.00;;;;;;;7.63;100.00;99309.28;5072025;28;20179;-78
2022/12/23 11:13:39;;;;;;;0.00;0.00;;;;;;;7.67;100.00;99306.75;5071742;28;20217;-74
2022/12/23 11:16:20;;;;;;;0.00;0.00;;;;;;;7.75;100.00;99301.28;5071909;28;20182;-76
2022/12/23 11:18:58;;;;;;;0.00;0.00;;;;;;;7.79;100.00;99300.66;5072254;28;20208;-79
2022/12/23 11:21:25;;;;;;;0.00;0.00;;;;;;;7.67;100.00;99315.72;5072126;28;20567;-77
2022/12/23 11:24:07;;;;;;;0.00;0.00;;;;;;;7.48;100.00;99312.47;5071721;28;20539;-77
2022/12/23 11:26:32;;;;;;;0.00;0.00;;;;;;;7.42;100.00;99317.28;5071426;28;20191;-78
2022/12/23 11:29:04;;;;;;;0.37;0.37;;;;;;;7.11;100.00;99298.38;5070505;28;20550;-77
2022/12/23 11:31:34;;;;;;;0.00;0.00;;;;;;;7.06;100.00;99303.94;5071689;28;20193;-77
2022/12/23 11:34:24;;;;;;;0.00;0.00;;;;;;;7.06;100.00;99298.50;5071622;28;20206;-79
2022/12/23 11:36:58;;;;;;;0.00;0.00;;;;;;;7.05;100.00;99288.75;5071647;28;20189;-78
2022/12/23 11:39:31;;;;;;;0.20;0.20;;;;;;;6.94;100.00;99297.50;5070278;28;20178;-75
2022/12/23 11:42:16;;;;;;;0.30;0.30;;;;;;;6.86;100.00;99288.25;5071608;28;20181;-78
2022/12/23 11:44:45;;;;;;;0.57;0.57;;;;;;;6.81;100.00;99285.69;5070973;28;20186;-78
2022/12/23 11:47:22;;;;;;;0.10;0.10;;;;;;;6.92;100.00;99281.53;5070096;28;20178;-76
2022/12/23 11:49:56;;;;;;;0.00;0.00;;;;;;;6.81;100.00;99269.41;5070149;28;20622;-76
2022/12/23 11:52:24;;;;;;;1.27;1.17;;;;;;;6.79;100.00;99258.81;5071400;28;20197;-77
2022/12/23 11:54:53;;;;;;;1.10;1.10;;;;;;;6.75;100.00;99260.56;5069516;28;20178;-77
2022/12/23 11:57:26;;;;;;;1.40;1.40;;;;;;;6.77;100.00;99258.34;5070871;28;20628;-76
2022/12/23 11:59:56;;;;;;;0.00;0.00;;;;;;;6.79;100.00;99253.41;5070944;28;20189;-77
2022/12/23 12:02:51;;;;;;;5.07;3.30;;;;;;;6.72;100.00;99239.50;5069869;28;20198;-76
2022/12/23 12:05:21;;;;;;;0.00;0.00;;;;;;;6.74;100.00;99241.91;5069904;28;20210;-79
2022/12/23 12:07:48;;;;;;;0.00;0.00;;;;;;;6.72;100.00;99235.97;5070317;28;20368;-76
2022/12/23 12:10:21;;;;;;;1.13;1.13;;;;;;;6.72;100.00;99234.06;5070444;28;20269;-76
2022/12/23 12:12:52;;;;;;;0.00;0.00;;;;;;;6.79;100.00;99228.16;5069891;28;20215;-79
2022/12/23 12:15:54;;;;;;;0.43;0.43;;;;;;;6.77;100.00;99214.91;5070392;28;20208;-77
2022/12/23 12:18:21;;;;;;;0.57;0.57;;;;;;;6.70;100.00;99200.22;5069553;28;20429;-75